Time;durP1;ratioP1;P1;durP2;ratioP2;P2;SDS_P1;SDS_P2;PMS_P1;PMS_P2;Temp;Humidity;BMP_temperature;BMP_pressure;BME280_temperature;BME280_humidity;BME280_pressure;Samples;Min_cycle;Max_cycle;Signal;HPM_P1;HPM_P2
2022/04/02 00:00:51;;;;;;;5.40;4.25;;;;;;;;;;5074648;28;20357;-62
2022/04/02 00:03:16;;;;;;;4.75;4.45;;;;;;;;;;5074442;28;20416;-62
2022/04/02 00:05:41;;;;;;;4.60;4.30;;;;;;;;;;5074222;28;20062;-62
2022/04/02 00:08:07;;;;;;;3.90;3.60;;;;;;;;;;5074445;28;20028;-62
2022/04/02 00:10:32;;;;;;;3.17;2.97;;;;;;;;;;5073167;28;20052;-62
2022/04/02 00:12:58;;;;;;;4.63;4.32;;;;;;;;;;5074460;28;20029;-62
2022/04/02 00:15:24;;;;;;;4.15;3.85;;;;;;;;;;5074074;28;20071;-63
2022/04/02 00:17:49;;;;;;;3.53;3.22;;;;;;;;;;5074145;28;20036;-63
2022/04/02 00:20:15;;;;;;;3.90;3.60;;;;;;;;;;5074210;28;20032;-62
2022/04/02 00:23:35;;;;;;;4.10;3.80;;;;;;;;;;5074231;28;20108;-62
2022/04/02 00:25:27;;;;;;;4.53;4.03;;;;;;;;;;5073643;28;20468;-62
2022/04/02 00:27:52;;;;;;;4.88;3.95;;;;;;;;;;5073938;28;20056;-71
2022/04/02 00:30:18;;;;;;;4.28;3.97;;;;;;;;;;5072726;28;20031;-71
2022/04/02 00:32:43;;;;;;;4.20;3.80;;;;;;;;;;5072647;28;20032;-71
2022/04/02 00:35:09;;;;;;;3.15;2.95;;;;;;;;;;5073596;28;20067;-71
2022/04/02 00:37:34;;;;;;;4.35;3.95;;;;;;;;;;5073884;28;20029;-71
2022/04/02 00:40:00;;;;;;;3.58;3.28;;;;;;;;;;5072537;28;20028;-71
2022/04/02 00:42:26;;;;;;;4.00;3.70;;;;;;;;;;5072504;28;20025;-70
2022/04/02 00:44:51;;;;;;;4.07;3.78;;;;;;;;;;5073164;28;20036;-70
2022/04/02 00:47:17;;;;;;;4.50;4.10;;;;;;;;;;5072092;28;20041;-70
2022/04/02 00:49:43;;;;;;;3.90;3.70;;;;;;;;;;5073662;28;20124;-70
2022/04/02 00:52:08;;;;;;;4.25;3.95;;;;;;;;;;5072490;28;20037;-70
2022/04/02 00:54:34;;;;;;;3.20;2.90;;;;;;;;;;5072134;28;20036;-71
2022/04/02 00:57:00;;;;;;;3.95;3.65;;;;;;;;;;5072341;28;20027;-71
2022/04/02 00:59:26;;;;;;;3.28;3.08;;;;;;;;;;5071962;28;20032;-71
2022/04/02 01:01:52;;;;;;;2.85;2.65;;;;;;;;;;5072078;28;20083;-73
2022/04/02 01:04:20;;;;;;;4.38;3.97;;;;;;;;;;5072363;28;20032;-72
2022/04/02 01:06:50;;;;;;;3.85;3.55;;;;;;;;;;5055795;28;20038;-73
2022/04/02 01:09:19;;;;;;;3.70;3.40;;;;;;;;;;5071907;28;20029;-72
2022/04/02 01:11:51;;;;;;;4.30;3.90;;;;;;;;;;5071838;28;20024;-72
2022/04/02 01:14:16;;;;;;;3.58;3.38;;;;;;;;;;5072162;28;20032;-72
2022/04/02 01:16:45;;;;;;;3.88;3.60;;;;;;;;;;5072001;28;20056;-72
2022/04/02 01:19:18;;;;;;;3.88;3.58;;;;;;;;;;5072135;28;20035;-72
2022/04/02 01:21:45;;;;;;;4.00;3.80;;;;;;;;;;5072061;28;20033;-72
2022/04/02 01:24:21;;;;;;;3.38;2.85;;;;;;;;;;5071870;28;20163;-72
2022/04/02 01:26:49;;;;;;;5.70;3.65;;;;;;;;;;5071916;28;20025;-71
2022/04/02 01:29:19;;;;;;;3.50;3.30;;;;;;;;;;5071897;28;20058;-71
2022/04/02 01:31:50;;;;;;;3.92;3.60;;;;;;;;;;5071595;28;20115;-71
2022/04/02 01:34:20;;;;;;;3.95;3.70;;;;;;;;;;5071833;28;20037;-70
2022/04/02 01:36:46;;;;;;;4.18;3.30;;;;;;;;;;5071792;28;20055;-70
2022/04/02 01:39:21;;;;;;;4.30;2.95;;;;;;;;;;5056147;28;20025;-70
2022/04/02 01:41:47;;;;;;;4.50;3.60;;;;;;;;;;5071740;28;20119;-69
2022/04/02 01:44:17;;;;;;;3.60;3.30;;;;;;;;;;5071563;28;20599;-71
2022/04/02 01:46:43;;;;;;;3.65;3.35;;;;;;;;;;5071728;28;20029;-69
2022/04/02 01:49:08;;;;;;;3.58;3.28;;;;;;;;;;5071677;28;20036;-70
2022/04/02 01:51:34;;;;;;;3.33;3.08;;;;;;;;;;5071719;28;20349;-70
2022/04/02 01:54:02;;;;;;;3.60;3.40;;;;;;;;;;5071257;28;20044;-69
2022/04/02 01:56:27;;;;;;;3.85;3.53;;;;;;;;;;5073839;28;20017;-72
2022/04/02 01:58:57;;;;;;;3.80;3.30;;;;;;;;;;5075525;28;20119;-72
2022/04/02 02:01:25;;;;;;;3.58;3.28;;;;;;;;;;5075560;28;20471;-72
2022/04/02 02:03:51;;;;;;;3.28;3.08;;;;;;;;;;5075474;28;20116;-72
2022/04/02 02:06:17;;;;;;;3.42;3.22;;;;;;;;;;5076579;28;20055;-70
2022/04/02 02:08:45;;;;;;;2.55;2.45;;;;;;;;;;5075330;28;20054;-71
2022/04/02 02:11:29;;;;;;;2.72;2.53;;;;;;;;;;5076918;28;20090;-73
2022/04/02 02:14:20;;;;;;;3.35;3.15;;;;;;;;;;5059745;28;20396;-73
2022/04/02 02:16:54;;;;;;;3.40;3.20;;;;;;;;;;5059556;28;20057;-72
2022/04/02 02:19:19;;;;;;;3.58;3.20;;;;;;;;;;5076340;28;20467;-72
2022/04/02 02:21:45;;;;;;;3.50;3.30;;;;;;;;;;5058399;28;20048;-73
2022/04/02 02:24:16;;;;;;;3.60;3.30;;;;;;;;;;5075741;28;20408;-73
2022/04/02 02:26:42;;;;;;;3.50;3.30;;;;;;;;;;5076493;28;20040;-73
2022/04/02 02:29:07;;;;;;;3.35;3.10;;;;;;;;;;5058338;28;20028;-73
2022/04/02 02:31:36;;;;;;;3.30;3.10;;;;;;;;;;5075239;28;20094;-73
2022/04/02 03:34:33;;;;;;;3.40;3.20;;;;;;;;;;4642532;28;20071;-72
2022/04/02 03:36:59;;;;;;;3.50;3.30;;;;;;;;;;5074103;28;20468;-72
2022/04/02 03:39:25;;;;;;;3.15;2.95;;;;;;;;;;5073525;28;20371;-72
2022/04/02 03:41:53;;;;;;;3.58;3.38;;;;;;;;;;5056895;28;20044;-72
2022/04/02 03:44:19;;;;;;;3.88;3.67;;;;;;;;;;5073375;28;20035;-72
2022/04/02 03:49:36;;;;;;;3.80;3.42;;;;;;;;;;5073397;28;20028;-73
2022/04/02 03:52:02;;;;;;;3.78;2.75;;;;;;;;;;5073233;28;20548;-73
2022/04/02 03:54:28;;;;;;;3.42;3.22;;;;;;;;;;5056334;28;20035;-73
2022/04/02 03:56:57;;;;;;;3.60;3.40;;;;;;;;;;5073099;28;20035;-74
2022/04/02 03:59:23;;;;;;;5.90;4.80;;;;;;;;;;5073252;28;20374;-73
2022/04/02 04:01:53;;;;;;;8.85;6.53;;;;;;;;;;5073185;28;20020;-72
2022/04/02 04:04:21;;;;;;;18.63;9.13;;;;;;;;;;5073033;28;20536;-71
2022/04/02 04:06:48;;;;;;;4.40;4.00;;;;;;;;;;5072830;28;20020;-73
2022/04/02 04:09:14;;;;;;;3.70;3.42;;;;;;;;;;5073163;28;20031;-75
2022/04/02 04:11:44;;;;;;;5.50;5.10;;;;;;;;;;5073160;28;20027;-73
2022/04/02 04:14:12;;;;;;;3.47;3.28;;;;;;;;;;5072572;28;20058;-73
2022/04/02 04:16:37;;;;;;;4.40;4.10;;;;;;;;;;5072808;28;20491;-73
2022/04/02 04:19:05;;;;;;;4.45;4.15;;;;;;;;;;5072082;28;20013;-73
2022/04/02 04:21:34;;;;;;;4.35;4.00;;;;;;;;;;5073155;28;20509;-74
2022/04/02 04:24:00;;;;;;;5.32;4.93;;;;;;;;;;5073116;28;20056;-74
2022/04/02 04:26:27;;;;;;;5.57;5.15;;;;;;;;;;5072806;28;20024;-74
2022/04/02 04:28:53;;;;;;;4.45;4.10;;;;;;;;;;5072845;28;20472;-74
2022/04/02 04:31:20;;;;;;;6.93;5.93;;;;;;;;;;5072991;28;20490;-74
2022/04/02 04:33:46;;;;;;;4.30;4.00;;;;;;;;;;5073956;28;20119;-73
2022/04/02 04:36:12;;;;;;;5.55;5.05;;;;;;;;;;5072308;28;20047;-73
2022/04/02 04:38:38;;;;;;;3.28;3.08;;;;;;;;;;5073149;28;21027;-73
2022/04/02 04:41:11;;;;;;;5.60;5.18;;;;;;;;;;5072324;28;20074;-74
2022/04/02 04:43:37;;;;;;;3.88;3.67;;;;;;;;;;5072177;28;20603;-74
2022/04/02 04:46:03;;;;;;;4.57;3.47;;;;;;;;;;5072046;28;20048;-74
2022/04/02 04:48:29;;;;;;;5.38;4.97;;;;;;;;;;5072074;28;20123;-74
2022/04/02 04:50:58;;;;;;;4.88;4.63;;;;;;;;;;5072111;28;20498;-74
2022/04/02 04:53:26;;;;;;;4.70;4.40;;;;;;;;;;5072027;28;20025;-73
2022/04/02 04:55:53;;;;;;;5.13;4.63;;;;;;;;;;5071812;28;20467;-73
2022/04/02 04:58:20;;;;;;;4.30;3.90;;;;;;;;;;5072032;28;20500;-73
2022/04/02 05:00:50;;;;;;;5.10;4.80;;;;;;;;;;5071877;28;20112;-74
2022/04/02 05:03:15;;;;;;;14.70;13.20;;;;;;;;;;5071853;28;20115;-74
2022/04/02 05:05:45;;;;;;;13.98;12.32;;;;;;;;;;5071932;28;20024;-74
2022/04/02 05:08:15;;;;;;;9.95;9.20;;;;;;;;;;5072037;28;20540;-74
2022/04/02 05:10:42;;;;;;;5.43;4.53;;;;;;;;;;5071817;28;20388;-74
2022/04/02 05:13:14;;;;;;;13.00;8.02;;;;;;;;;;5071711;28;20036;-73
2022/04/02 05:15:43;;;;;;;19.35;14.45;;;;;;;;;;5071736;28;20029;-73
2022/04/02 05:18:12;;;;;;;33.65;20.05;;;;;;;;;;5071839;28;20013;-74
2022/04/02 05:20:38;;;;;;;38.10;19.15;;;;;;;;;;5071885;28;20442;-74
2022/04/02 05:23:05;;;;;;;8.73;6.07;;;;;;;;;;5071872;28;20383;-74
2022/04/02 05:25:34;;;;;;;17.98;9.45;;;;;;;;;;5071615;28;20530;-74
2022/04/02 05:28:00;;;;;;;30.65;16.73;;;;;;;;;;5071631;28;20111;-73
2022/04/02 05:30:29;;;;;;;56.90;26.85;;;;;;;;;;5073987;28;20024;-74
2022/04/02 05:32:56;;;;;;;36.92;18.65;;;;;;;;;;5075306;28;20115;-74
2022/04/02 05:35:25;;;;;;;32.28;15.52;;;;;;;;;;5075252;28;20470;-74
2022/04/02 05:37:51;;;;;;;75.50;35.72;;;;;;;;;;5076985;28;20098;-74
2022/04/02 05:40:17;;;;;;;81.25;39.70;;;;;;;;;;5075698;28;20029;-74
2022/04/02 05:42:42;;;;;;;55.75;28.15;;;;;;;;;;5076895;28;20013;-74
2022/04/02 05:45:08;;;;;;;105.00;46.47;;;;;;;;;;5076976;28;20028;-74
2022/04/02 05:47:44;;;;;;;36.85;18.08;;;;;;;;;;5075642;28;20363;-74
2022/04/02 05:50:11;;;;;;;35.85;18.98;;;;;;;;;;5076867;28;20395;-75
2022/04/02 05:52:37;;;;;;;29.90;17.45;;;;;;;;;;5076971;28;20093;-74
2022/04/02 05:55:02;;;;;;;8.48;6.90;;;;;;;;;;5076924;28;20560;-74
2022/04/02 05:57:28;;;;;;;7.60;6.47;;;;;;;;;;5075714;28;20082;-74
2022/04/02 05:59:54;;;;;;;15.32;11.65;;;;;;;;;;5076131;28;20033;-73
2022/04/02 06:02:19;;;;;;;34.03;23.98;;;;;;;;;;5075619;28;20375;-74
2022/04/02 06:04:45;;;;;;;15.63;10.57;;;;;;;;;;5076420;28;20043;-74
2022/04/02 06:07:11;;;;;;;19.50;13.15;;;;;;;;;;5076501;28;20021;-74
2022/04/02 06:09:36;;;;;;;6.95;5.57;;;;;;;;;;5076365;28;20479;-74
2022/04/02 06:12:02;;;;;;;6.63;6.10;;;;;;;;;;5075029;28;20070;-74
2022/04/02 06:14:27;;;;;;;6.28;5.80;;;;;;;;;;5074795;28;20058;-74
2022/04/02 06:16:53;;;;;;;5.78;5.22;;;;;;;;;;5076344;28;20019;-74
2022/04/02 06:19:19;;;;;;;4.38;4.07;;;;;;;;;;5074994;28;20395;-74
2022/04/02 06:21:45;;;;;;;4.60;4.30;;;;;;;;;;5076083;28;20372;-74
2022/04/02 06:24:10;;;;;;;10.48;6.28;;;;;;;;;;5074704;28;20032;-74
2022/04/02 06:26:36;;;;;;;4.13;3.72;;;;;;;;;;5074874;28;20045;-74
2022/04/02 06:29:01;;;;;;;5.22;4.85;;;;;;;;;;5075943;28;20174;-74
2022/04/02 06:31:27;;;;;;;6.93;6.32;;;;;;;;;;5075882;28;20028;-74
2022/04/02 06:33:52;;;;;;;6.45;5.85;;;;;;;;;;5074415;28;20020;-74
2022/04/02 06:36:19;;;;;;;58.35;49.75;;;;;;;;;;5074533;28;20044;-72
2022/04/02 06:38:46;;;;;;;30.25;21.23;;;;;;;;;;5074687;28;20033;-72
2022/04/02 06:41:11;;;;;;;170.23;135.70;;;;;;;;;;5075449;28;20043;-72
2022/04/02 06:43:37;;;;;;;378.10;290.10;;;;;;;;;;5074828;28;20047;-72
2022/04/02 06:46:04;;;;;;;231.48;141.48;;;;;;;;;;5075684;28;20067;-72
2022/04/02 06:48:30;;;;;;;673.30;415.45;;;;;;;;;;5075467;28;20103;-72
2022/04/02 06:50:55;;;;;;;434.98;235.70;;;;;;;;;;5075464;28;20063;-72
2022/04/02 06:53:21;;;;;;;371.00;185.05;;;;;;;;;;5075280;28;20050;-72
2022/04/02 06:55:46;;;;;;;373.20;150.00;;;;;;;;;;5075161;28;20021;-72
2022/04/02 06:58:31;;;;;;;591.17;238.07;;;;;;;;;;5057642;28;20134;-72
2022/04/02 07:00:57;;;;;;;1349.95;500.33;;;;;;;;;;5075415;28;20025;-72
2022/04/02 07:03:22;;;;;;;1213.55;464.02;;;;;;;;;;5075253;28;20023;-72
2022/04/02 07:05:48;;;;;;;776.80;263.33;;;;;;;;;;5075372;28;20078;-72
2022/04/02 07:08:13;;;;;;;1113.13;395.23;;;;;;;;;;5075190;28;20495;-72
2022/04/02 07:10:39;;;;;;;1999.90;698.67;;;;;;;;;;5075083;28;20387;-72
2022/04/02 07:13:05;;;;;;;1704.90;620.28;;;;;;;;;;5074899;28;20016;-72
2022/04/02 07:15:30;;;;;;;1657.05;553.33;;;;;;;;;;5074914;28;20025;-73
2022/04/02 07:17:55;;;;;;;750.42;262.45;;;;;;;;;;5075092;28;20482;-74
2022/04/02 07:20:26;;;;;;;214.00;68.75;;;;;;;;;;5074841;28;20021;-73
2022/04/02 07:22:52;;;;;;;1218.90;518.15;;;;;;;;;;5074770;28;20028;-72
2022/04/02 07:25:19;;;;;;;862.97;372.23;;;;;;;;;;5074973;28;20052;-73
2022/04/02 07:27:45;;;;;;;92.32;39.05;;;;;;;;;;5074936;28;20028;-73
2022/04/02 07:30:11;;;;;;;450.50;181.52;;;;;;;;;;5074712;28;20020;-73
2022/04/02 07:32:36;;;;;;;76.05;33.78;;;;;;;;;;5074688;28;20033;-73
2022/04/02 07:35:02;;;;;;;675.78;300.17;;;;;;;;;;5074043;28;20044;-73
2022/04/02 07:37:34;;;;;;;246.77;106.75;;;;;;;;;;5073432;28;20116;-74
2022/04/02 07:40:16;;;;;;;771.72;390.42;;;;;;;;;;5074665;28;20052;-73
2022/04/02 07:42:42;;;;;;;128.23;56.95;;;;;;;;;;5074689;28;20025;-73
2022/04/02 07:45:08;;;;;;;655.47;360.00;;;;;;;;;;5073413;28;20028;-73
2022/04/02 07:47:35;;;;;;;421.15;224.27;;;;;;;;;;5073209;28;20040;-73
2022/04/02 07:50:02;;;;;;;549.03;301.40;;;;;;;;;;5074351;28;20031;-73
2022/04/02 07:52:29;;;;;;;166.30;85.25;;;;;;;;;;5073040;28;20079;-73
2022/04/02 07:54:59;;;;;;;95.97;54.03;;;;;;;;;;5071970;28;20447;-73
2022/04/02 07:57:27;;;;;;;315.33;221.40;;;;;;;;;;5074397;28;20036;-73
2022/04/02 08:00:03;;;;;;;121.05;69.95;;;;;;;;;;5073027;28;20267;-73
2022/04/02 08:02:43;;;;;;;150.48;86.47;;;;;;;;;;5074285;28;20055;-73
2022/04/02 08:05:18;;;;;;;50.75;34.17;;;;;;;;;;5072155;28;20036;-73
2022/04/02 08:07:49;;;;;;;138.57;88.22;;;;;;;;;;5074872;28;20021;-73
2022/04/02 08:10:19;;;;;;;67.97;46.00;;;;;;;;;;5074138;28;20115;-73
2022/04/02 08:12:47;;;;;;;164.55;110.93;;;;;;;;;;5073983;28;20357;-73
2022/04/02 08:15:16;;;;;;;108.38;73.15;;;;;;;;;;5073839;28;20039;-66
2022/04/02 08:17:43;;;;;;;59.67;42.35;;;;;;;;;;5073913;28;20106;-66
2022/04/02 08:20:10;;;;;;;67.28;44.67;;;;;;;;;;5072434;28;20029;-66
2022/04/02 08:22:36;;;;;;;58.10;37.95;;;;;;;;;;5073829;28;20029;-66
2022/04/02 08:25:02;;;;;;;33.90;29.50;;;;;;;;;;5073727;28;20032;-66
2022/04/02 08:27:28;;;;;;;92.85;69.43;;;;;;;;;;5072574;28;20584;-64
2022/04/02 08:30:01;;;;;;;132.40;89.82;;;;;;;;;;5073624;28;20115;-67
2022/04/02 08:32:29;;;;;;;82.75;64.05;;;;;;;;;;5072579;28;20032;-66
2022/04/02 08:35:01;;;;;;;63.35;47.40;;;;;;;;;;5072913;28;20468;-66
2022/04/02 08:37:45;;;;;;;66.78;53.08;;;;;;;;;;5073821;28;20106;-67
2022/04/02 08:40:37;;;;;;;42.03;35.45;;;;;;;;;;5073693;28;20037;-67
2022/04/02 08:43:05;;;;;;;33.97;30.30;;;;;;;;;;5064831;28;20044;-67
2022/04/02 08:45:32;;;;;;;30.10;26.02;;;;;;;;;;5072174;28;20024;-66
2022/04/02 08:48:10;;;;;;;15.75;14.25;;;;;;;;;;5073277;28;20500;-67
2022/04/02 08:50:36;;;;;;;36.45;30.55;;;;;;;;;;5073175;28;20033;-67
2022/04/02 08:53:15;;;;;;;27.80;22.48;;;;;;;;;;5073143;28;20070;-66
2022/04/02 08:55:45;;;;;;;9.70;8.90;;;;;;;;;;5073301;28;20040;-66
2022/04/02 08:58:10;;;;;;;20.45;18.38;;;;;;;;;;5073314;28;20035;-67
2022/04/02 09:00:40;;;;;;;16.65;12.93;;;;;;;;;;5073104;28;20016;-66
2022/04/02 09:03:12;;;;;;;37.03;32.45;;;;;;;;;;5071875;28;20533;-66
2022/04/02 09:05:49;;;;;;;22.27;19.33;;;;;;;;;;5072798;28;20059;-67
2022/04/02 09:08:34;;;;;;;18.10;16.20;;;;;;;;;;5073152;28;20036;-67
2022/04/02 09:11:16;;;;;;;24.38;21.27;;;;;;;;;;5073040;28;20048;-67
2022/04/02 09:13:57;;;;;;;9.27;8.23;;;;;;;;;;5073528;28;20040;-67
2022/04/02 09:16:28;;;;;;;10.75;9.75;;;;;;;;;;5073219;28;20033;-67
2022/04/02 09:19:15;;;;;;;13.30;11.98;;;;;;;;;;5072954;28;20017;-67
2022/04/02 09:21:59;;;;;;;21.23;18.98;;;;;;;;;;5073175;28;20029;-67
2022/04/02 09:24:31;;;;;;;14.80;13.27;;;;;;;;;;5073079;28;20043;-70
2022/04/02 09:27:16;;;;;;;11.15;10.02;;;;;;;;;;5071819;28;20522;-71
2022/04/02 09:29:50;;;;;;;22.70;20.35;;;;;;;;;;5073317;28;20356;-71
2022/04/02 09:32:39;;;;;;;19.98;18.10;;;;;;;;;;5073131;28;20467;-69
2022/04/02 09:35:04;;;;;;;14.60;13.18;;;;;;;;;;5072546;28;20040;-69
2022/04/02 09:37:32;;;;;;;11.10;10.10;;;;;;;;;;5072909;28;20111;-69
2022/04/02 09:39:58;;;;;;;13.43;12.13;;;;;;;;;;5072830;28;20032;-71
2022/04/02 09:42:41;;;;;;;11.57;10.50;;;;;;;;;;5071486;28;20028;-71
2022/04/02 09:45:09;;;;;;;21.27;18.13;;;;;;;;;;5072726;28;20138;-69
2022/04/02 09:47:44;;;;;;;26.13;20.52;;;;;;;;;;5072856;28;20020;-69
2022/04/02 09:50:10;;;;;;;18.77;16.75;;;;;;;;;;5072772;28;20039;-71
2022/04/02 09:52:43;;;;;;;51.30;30.38;;;;;;;;;;5072811;28;20356;-71
2022/04/02 09:55:09;;;;;;;42.25;23.67;;;;;;;;;;5072684;28;20032;-70
2022/04/02 09:57:38;;;;;;;38.33;20.30;;;;;;;;;;5071439;28;20036;-71
2022/04/02 10:00:07;;;;;;;62.58;27.65;;;;;;;;;;5072539;28;20436;-70
2022/04/02 10:03:01;;;;;;;23.95;14.35;;;;;;;;;;5072783;28;20361;-68
2022/04/02 10:05:42;;;;;;;58.08;25.23;;;;;;;;;;5072550;28;20032;-66
2022/04/02 10:08:31;;;;;;;55.70;26.85;;;;;;;;;;5071947;28;20033;-67
2022/04/02 10:11:00;;;;;;;75.72;44.08;;;;;;;;;;5072708;28;20043;-67
2022/04/02 10:13:27;;;;;;;12.15;8.85;;;;;;;;;;5072534;28;20392;-68
2022/04/02 10:15:55;;;;;;;21.48;16.05;;;;;;;;;;5071839;28;20025;-68
2022/04/02 10:18:22;;;;;;;15.35;10.77;;;;;;;;;;5075079;28;20099;-67
2022/04/02 10:20:48;;;;;;;11.80;8.88;;;;;;;;;;5076752;28;20027;-69
2022/04/02 10:23:19;;;;;;;10.27;9.20;;;;;;;;;;5076389;28;20048;-70
2022/04/02 10:25:54;;;;;;;9.80;8.80;;;;;;;;;;5076358;28;20043;-69
2022/04/02 10:28:22;;;;;;;8.77;7.80;;;;;;;;;;5076270;28;20492;-69
2022/04/02 10:30:49;;;;;;;7.65;6.95;;;;;;;;;;5075942;28;20024;-69
2022/04/02 10:33:27;;;;;;;9.10;7.30;;;;;;;;;;5076018;28;20399;-70
2022/04/02 10:35:54;;;;;;;7.85;6.57;;;;;;;;;;5075466;28;20090;-69
2022/04/02 10:38:19;;;;;;;11.35;9.23;;;;;;;;;;5075816;28;20122;-69
2022/04/02 10:40:53;;;;;;;21.40;14.52;;;;;;;;;;5075867;28;20391;-70
2022/04/02 10:43:28;;;;;;;95.00;47.03;;;;;;;;;;5075958;28;20058;-70
2022/04/02 10:45:55;;;;;;;184.10;98.43;;;;;;;;;;5075762;28;20037;-70
2022/04/02 10:48:26;;;;;;;108.47;47.55;;;;;;;;;;5075713;28;20021;-69
2022/04/02 10:50:54;;;;;;;373.55;133.52;;;;;;;;;;5075661;28;20039;-71
2022/04/02 10:53:21;;;;;;;552.08;218.23;;;;;;;;;;5075572;28;20055;-70
2022/04/02 10:55:47;;;;;;;285.83;114.97;;;;;;;;;;5075485;28;20033;-70
2022/04/02 10:58:13;;;;;;;679.90;315.98;;;;;;;;;;5075442;28;20380;-71
2022/04/02 11:00:43;;;;;;;643.55;285.42;;;;;;;;;;5075286;28;20035;-69
2022/04/02 11:03:15;;;;;;;297.30;112.05;;;;;;;;;;5074350;28;20101;-69
2022/04/02 11:05:40;;;;;;;941.47;396.00;;;;;;;;;;5075297;28;20041;-70
2022/04/02 11:08:10;;;;;;;413.15;146.95;;;;;;;;;;5075348;28;20031;-69
2022/04/02 11:10:36;;;;;;;633.22;224.23;;;;;;;;;;5075061;28;20113;-69
2022/04/02 11:13:04;;;;;;;153.35;53.65;;;;;;;;;;5074646;28;20056;-69
2022/04/02 11:15:36;;;;;;;661.10;223.40;;;;;;;;;;5074512;28;20498;-69
2022/04/02 11:18:02;;;;;;;807.33;304.38;;;;;;;;;;5074808;28;20365;-69
2022/04/02 11:20:31;;;;;;;432.00;149.98;;;;;;;;;;5074837;28;20032;-69
2022/04/02 11:23:06;;;;;;;772.85;285.88;;;;;;;;;;5075215;28;20044;-69
2022/04/02 11:25:31;;;;;;;519.03;173.75;;;;;;;;;;5074735;28;20086;-70
2022/04/02 11:27:59;;;;;;;545.85;200.98;;;;;;;;;;5074716;28;20028;-69
2022/04/02 11:30:29;;;;;;;1023.53;412.80;;;;;;;;;;5074892;28;20032;-69
2022/04/02 11:33:02;;;;;;;503.10;183.67;;;;;;;;;;5073780;28;20028;-66
2022/04/02 11:35:29;;;;;;;445.38;161.35;;;;;;;;;;5074218;28;20086;-69
2022/04/02 11:37:55;;;;;;;939.28;342.88;;;;;;;;;;5074705;28;20387;-70
2022/04/02 11:40:23;;;;;;;844.20;302.02;;;;;;;;;;5074658;28;20024;-71
2022/04/02 11:42:48;;;;;;;793.45;287.70;;;;;;;;;;5074661;28;20025;-71
2022/04/02 11:45:18;;;;;;;427.40;122.57;;;;;;;;;;5074272;28;20589;-71
2022/04/02 11:47:47;;;;;;;867.72;303.63;;;;;;;;;;5074459;28;20056;-71
2022/04/02 11:50:21;;;;;;;924.17;317.60;;;;;;;;;;5073118;28;20085;-71
2022/04/02 11:52:51;;;;;;;825.35;281.38;;;;;;;;;;5074529;28;20029;-72
2022/04/02 11:55:16;;;;;;;642.65;233.93;;;;;;;;;;5074222;28;20031;-71
2022/04/02 11:58:01;;;;;;;964.97;345.20;;;;;;;;;;5074297;28;20017;-71
2022/04/02 12:00:27;;;;;;;717.38;242.50;;;;;;;;;;5074384;28;20465;-72
2022/04/02 12:02:53;;;;;;;1874.47;669.38;;;;;;;;;;5074191;28;20023;-71
2022/04/02 12:05:20;;;;;;;1950.22;681.17;;;;;;;;;;5074016;28;20036;-71
2022/04/02 12:07:45;;;;;;;1450.95;518.72;;;;;;;;;;5073014;28;20389;-71
2022/04/02 12:10:25;;;;;;;942.40;343.50;;;;;;;;;;5072933;28;20079;-70
2022/04/02 12:12:51;;;;;;;1109.20;399.25;;;;;;;;;;5073886;28;20032;-71
2022/04/02 12:15:17;;;;;;;284.58;105.47;;;;;;;;;;5073933;28;20031;-71
2022/04/02 12:18:02;;;;;;;428.60;123.93;;;;;;;;;;5074221;28;20364;-71
2022/04/02 12:20:32;;;;;;;380.00;108.95;;;;;;;;;;5074137;28;20032;-71
2022/04/02 12:23:11;;;;;;;577.97;170.50;;;;;;;;;;5074072;28;20487;-71
2022/04/02 12:25:38;;;;;;;721.63;227.43;;;;;;;;;;5073523;28;20040;-70
2022/04/02 12:28:10;;;;;;;106.97;36.97;;;;;;;;;;5073681;28;20052;-68
2022/04/02 12:30:37;;;;;;;1532.18;524.33;;;;;;;;;;5073639;28;20028;-69
2022/04/02 12:33:11;;;;;;;917.53;317.52;;;;;;;;;;5073686;28;20024;-69
2022/04/02 12:35:37;;;;;;;987.83;337.25;;;;;;;;;;5073064;28;20036;-61
2022/04/02 12:38:05;;;;;;;463.95;145.90;;;;;;;;;;5073568;28;20029;-62
2022/04/02 12:40:32;;;;;;;810.88;299.70;;;;;;;;;;5072994;28;20016;-62
2022/04/02 12:43:05;;;;;;;840.90;324.30;;;;;;;;;;5073511;28;20033;-63
2022/04/02 12:45:32;;;;;;;576.72;223.88;;;;;;;;;;5073054;28;20044;-62
2022/04/02 12:48:01;;;;;;;116.10;50.28;;;;;;;;;;5073379;28;20027;-62
2022/04/02 12:50:28;;;;;;;641.30;288.83;;;;;;;;;;5073337;28;20037;-62
2022/04/02 12:52:53;;;;;;;279.70;123.85;;;;;;;;;;5073312;28;20052;-62
2022/04/02 12:55:20;;;;;;;152.25;72.53;;;;;;;;;;5073206;28;20470;-63
2022/04/02 12:57:56;;;;;;;101.90;49.90;;;;;;;;;;5073237;28;20082;-63
2022/04/02 13:00:31;;;;;;;537.30;323.85;;;;;;;;;;5073235;28;20543;-64
2022/04/02 13:02:58;;;;;;;121.38;69.72;;;;;;;;;;5073275;28;20027;-63
2022/04/02 13:05:24;;;;;;;77.45;51.95;;;;;;;;;;5072802;28;20074;-63
2022/04/02 13:08:04;;;;;;;119.80;72.78;;;;;;;;;;5071931;28;20436;-63
2022/04/02 13:10:30;;;;;;;55.67;41.33;;;;;;;;;;5055339;28;20369;-62
2022/04/02 13:12:58;;;;;;;85.72;57.58;;;;;;;;;;5071812;28;20293;-63
2022/04/02 13:15:26;;;;;;;139.30;102.18;;;;;;;;;;5073004;28;20471;-63
2022/04/02 13:20:41;;;;;;;33.60;26.63;;;;;;;;;;5073155;28;20486;-63
2022/04/02 13:23:07;;;;;;;54.20;41.08;;;;;;;;;;5073094;28;20024;-63
2022/04/02 13:25:33;;;;;;;27.45;22.23;;;;;;;;;;5072679;28;20145;-63
2022/04/02 13:28:08;;;;;;;21.45;14.43;;;;;;;;;;5073024;28;20085;-67
2022/04/02 13:30:38;;;;;;;31.63;22.95;;;;;;;;;;5072964;28;20029;-66
2022/04/02 13:33:03;;;;;;;24.73;18.42;;;;;;;;;;5072986;28;20511;-65
2022/04/02 13:35:35;;;;;;;27.58;19.17;;;;;;;;;;5054182;28;20076;-71
2022/04/02 13:38:25;;;;;;;24.42;16.92;;;;;;;;;;5073059;28;20044;-74
2022/04/02 13:40:51;;;;;;;20.75;16.75;;;;;;;;;;5073120;28;20047;-67
2022/04/02 13:43:26;;;;;;;18.35;14.93;;;;;;;;;;5071701;28;20043;-67
2022/04/02 13:45:53;;;;;;;20.95;17.27;;;;;;;;;;5072762;28;20033;-66
2022/04/02 13:48:20;;;;;;;21.63;17.63;;;;;;;;;;5072914;28;20032;-67
2022/04/02 13:50:58;;;;;;;20.35;15.55;;;;;;;;;;5073072;28;20111;-67
2022/04/02 13:53:32;;;;;;;19.63;14.93;;;;;;;;;;5076994;28;20035;-67
2022/04/02 13:56:01;;;;;;;17.55;15.45;;;;;;;;;;5077171;28;20036;-67
2022/04/02 13:58:32;;;;;;;23.92;19.67;;;;;;;;;;5076839;28;20048;-66
2022/04/02 14:01:00;;;;;;;26.30;22.58;;;;;;;;;;5075623;28;20507;-67
2022/04/02 14:03:27;;;;;;;17.48;15.55;;;;;;;;;;5076880;28;20070;-68
2022/04/02 14:05:55;;;;;;;20.98;17.88;;;;;;;;;;5076681;28;20404;-68
2022/04/02 14:08:22;;;;;;;28.33;21.25;;;;;;;;;;5077063;28;20021;-69
2022/04/02 14:10:51;;;;;;;32.75;28.25;;;;;;;;;;5076488;28;20033;-68
2022/04/02 14:13:28;;;;;;;19.10;17.10;;;;;;;;;;5075309;28;20464;-68
2022/04/02 14:16:01;;;;;;;13.05;11.75;;;;;;;;;;5076506;28;20028;-68
2022/04/02 14:18:27;;;;;;;14.75;12.75;;;;;;;;;;5076395;28;20372;-68
2022/04/02 14:20:54;;;;;;;14.13;11.65;;;;;;;;;;5076313;28;20371;-68
2022/04/02 14:23:22;;;;;;;17.27;15.43;;;;;;;;;;5076523;28;20032;-69
2022/04/02 14:25:47;;;;;;;18.30;16.25;;;;;;;;;;5076059;28;20020;-68
2022/04/02 14:28:13;;;;;;;19.38;17.35;;;;;;;;;;5076282;28;20047;-68
2022/04/02 14:30:57;;;;;;;16.10;13.95;;;;;;;;;;5076174;28;20028;-67
2022/04/02 14:33:41;;;;;;;17.45;15.65;;;;;;;;;;5076237;28;20028;-68
2022/04/02 14:36:07;;;;;;;15.18;12.90;;;;;;;;;;5075771;28;20063;-68
2022/04/02 14:38:51;;;;;;;12.80;10.52;;;;;;;;;;5075913;28;20029;-69
2022/04/02 14:41:35;;;;;;;12.85;11.05;;;;;;;;;;5075281;28;20020;-68
2022/04/02 14:44:21;;;;;;;11.57;10.43;;;;;;;;;;5056400;28;20064;-69
2022/04/02 14:47:05;;;;;;;13.25;10.65;;;;;;;;;;5055738;28;20045;-70
2022/04/02 14:49:31;;;;;;;17.67;12.80;;;;;;;;;;5055832;28;20078;-70
2022/04/02 14:52:19;;;;;;;17.33;12.73;;;;;;;;;;5055733;28;20025;-68
2022/04/02 14:55:00;;;;;;;12.38;11.07;;;;;;;;;;5052649;28;20064;-69
2022/04/02 14:57:25;;;;;;;;;;;;;;;;;;5056464;28;20021;-68
2022/04/02 15:00:03;;;;;;;13.57;10.23;;;;;;;;;;5055625;28;20317;-69
2022/04/02 15:02:47;;;;;;;12.82;10.32;;;;;;;;;;5054290;28;20033;-68
2022/04/02 15:05:31;;;;;;;11.35;9.85;;;;;;;;;;5055502;28;20029;-72
2022/04/02 15:08:16;;;;;;;21.67;15.80;;;;;;;;;;5037588;28;20056;-68
2022/04/02 15:10:49;;;;;;;21.75;18.45;;;;;;;;;;5055401;28;20037;-68
2022/04/02 15:13:22;;;;;;;39.60;22.58;;;;;;;;;;5055442;28;20037;-68
2022/04/02 15:15:47;;;;;;;19.25;14.32;;;;;;;;;;5055220;28;20032;-68
2022/04/02 15:18:19;;;;;;;14.75;12.25;;;;;;;;;;5055232;28;20491;-68
2022/04/02 15:21:02;;;;;;;45.33;27.48;;;;;;;;;;5055511;28;20021;-68
2022/04/02 15:23:28;;;;;;;23.48;16.00;;;;;;;;;;5055335;28;20025;-61
2022/04/02 15:25:57;;;;;;;57.30;33.00;;;;;;;;;;5053737;28;20111;-61
2022/04/02 15:28:23;;;;;;;27.05;17.38;;;;;;;;;;5065729;28;20036;-62
2022/04/02 15:30:50;;;;;;;47.17;28.42;;;;;;;;;;5075358;28;20099;-62
2022/04/02 15:33:19;;;;;;;14.82;11.98;;;;;;;;;;5075380;28;20028;-62
2022/04/02 15:35:52;;;;;;;12.63;11.23;;;;;;;;;;5074647;28;20048;-62
2022/04/02 15:38:38;;;;;;;13.13;11.07;;;;;;;;;;5075274;28;20029;-62